Time;durP1;ratioP1;P1;durP2;ratioP2;P2;SDS_P1;SDS_P2;PMS_P1;PMS_P2;Temp;Humidity;BMP_temperature;BMP_pressure;BME280_temperature;BME280_humidity;BME280_pressure;Samples;Min_cycle;Max_cycle;Signal;HPM_P1;HPM_P2
2021/12/20 00:00:21;;;;;;;13.30;4.60;;;;;;;0.39;79.62;98331.71;102796;1317;111493;-71
2021/12/20 00:03:08;;;;;;;18.60;5.30;;;;;;;0.39;79.75;98333.47;102794;1315;96341;-72
2021/12/20 00:05:37;;;;;;;11.60;4.90;;;;;;;0.39;79.75;98329.27;102975;1317;108474;-73
2021/12/20 00:08:05;;;;;;;14.20;4.10;;;;;;;0.40;79.80;98330.98;102769;1316;99531;-72
2021/12/20 00:10:34;;;;;;;15.10;4.60;;;;;;;0.40;79.74;98333.60;102376;1316;97920;-73
2021/12/20 00:13:02;;;;;;;13.00;4.10;;;;;;;0.41;79.68;98333.39;102743;1318;113022;-73
2021/12/20 00:15:30;;;;;;;15.60;4.30;;;;;;;0.41;79.77;98325.52;102873;1315;98664;-72
2021/12/20 00:17:58;;;;;;;15.70;4.40;;;;;;;0.39;79.70;98332.92;102923;1316;107777;-72
2021/12/20 00:20:27;;;;;;;13.00;4.60;;;;;;;0.39;79.76;98331.04;102994;1318;98025;-73
2021/12/20 00:22:55;;;;;;;13.00;4.00;;;;;;;0.39;79.67;98334.36;103111;1316;97756;-72
2021/12/20 00:25:23;;;;;;;14.70;4.20;;;;;;;0.38;79.83;98335.06;102858;1313;111509;-72
2021/12/20 00:27:54;;;;;;;17.90;5.60;;;;;;;0.39;79.75;98338.89;102777;1316;98069;-73
2021/12/20 00:30:22;;;;;;;12.60;4.10;;;;;;;0.37;79.74;98340.52;102758;1315;107816;-72
2021/12/20 00:32:51;;;;;;;17.20;5.00;;;;;;;0.38;79.76;98341.52;102795;1316;96447;-73
2021/12/20 00:35:24;;;;;;;16.00;4.00;;;;;;;0.38;79.77;98339.61;104475;1319;96135;-73
2021/12/20 00:40:39;;;;;;;14.20;4.40;;;;;;;0.36;79.67;98339.36;104647;1316;95935;-73
2021/12/20 00:43:07;;;;;;;13.50;4.20;;;;;;;0.36;79.60;98343.54;104391;1317;108439;-72
2021/12/20 00:45:37;;;;;;;15.40;4.40;;;;;;;0.36;79.61;98350.17;104563;1316;96029;-73
2021/12/20 00:48:06;;;;;;;14.00;5.50;;;;;;;0.36;79.71;98349.45;104631;1316;96089;-72
2021/12/20 00:50:41;;;;;;;18.40;4.50;;;;;;;0.38;79.57;98352.50;103095;1316;111427;-73
2021/12/20 00:53:12;;;;;;;16.80;5.70;;;;;;;0.39;79.52;98351.63;102898;1318;98448;-73
2021/12/20 00:55:41;;;;;;;14.70;4.10;;;;;;;0.39;79.70;98353.35;102902;1316;105505;-71
2021/12/20 00:58:09;;;;;;;15.60;4.50;;;;;;;0.40;79.67;98357.33;102824;1316;97901;-71
2021/12/20 01:00:46;;;;;;;16.90;5.30;;;;;;;0.41;79.64;98357.78;102840;1315;95890;-73
2021/12/20 01:03:19;;;;;;;15.60;4.00;;;;;;;0.41;79.68;98361.43;102987;1320;111610;-72
2021/12/20 01:05:50;;;;;;;15.70;4.70;;;;;;;0.43;79.76;98360.13;103051;1319;97923;-72
2021/12/20 01:08:20;;;;;;;16.50;4.90;;;;;;;0.47;79.80;98361.92;103052;1316;107456;-71
2021/12/20 01:10:52;;;;;;;16.30;4.70;;;;;;;0.46;79.65;98359.15;102964;1319;97980;-72
2021/12/20 01:13:32;;;;;;;18.30;5.60;;;;;;;0.48;79.72;98366.75;103016;1316;97905;-73
2021/12/20 01:16:05;;;;;;;17.90;5.60;;;;;;;0.50;79.74;98363.36;102998;1316;111667;-73
2021/12/20 01:18:33;;;;;;;16.20;4.80;;;;;;;0.50;79.60;98361.25;102892;1318;97883;-72
2021/12/20 01:21:01;;;;;;;16.70;4.50;;;;;;;0.49;79.58;98359.36;102887;1318;107670;-71
2021/12/20 01:23:29;;;;;;;18.90;5.70;;;;;;;0.49;79.78;98359.01;102971;1320;97907;-71
2021/12/20 01:25:56;;;;;;;16.30;5.20;;;;;;;0.50;79.82;98360.92;103044;1316;97908;-73
2021/12/20 01:28:24;;;;;;;20.80;6.10;;;;;;;0.49;79.77;98361.45;103070;1316;111354;-74
2021/12/20 01:30:55;;;;;;;17.70;5.60;;;;;;;0.50;79.63;98362.11;103102;1316;97908;-74
2021/12/20 01:33:23;;;;;;;18.10;5.60;;;;;;;0.51;79.71;98361.58;102857;1316;107788;-73
2021/12/20 01:35:58;;;;;;;16.30;6.30;;;;;;;0.50;79.74;98362.30;102912;1322;97866;-74
2021/12/20 01:38:28;;;;;;;18.00;5.00;;;;;;;0.51;79.73;98357.71;103073;1316;95325;-74
2021/12/20 01:40:55;;;;;;;15.30;6.10;;;;;;;0.52;79.85;98358.20;103050;1321;111242;-73
2021/12/20 01:43:23;;;;;;;17.30;5.80;;;;;;;0.51;79.60;98355.11;102933;1319;99033;-73
2021/12/20 01:45:51;;;;;;;18.00;5.80;;;;;;;0.51;79.71;98353.89;102978;1320;108024;-73
2021/12/20 01:48:21;;;;;;;17.40;5.90;;;;;;;0.51;79.64;98354.06;103065;1316;97932;-74
2021/12/20 01:53:35;;;;;;;13.80;5.30;;;;;;;0.49;79.67;98353.08;103038;1316;111503;-72
2021/12/20 01:56:04;;;;;;;18.80;6.80;;;;;;;0.49;79.62;98352.92;103073;1316;98047;-73
2021/12/20 01:58:33;;;;;;;20.10;6.60;;;;;;;0.50;79.75;98355.15;103029;1316;107795;-73
2021/12/20 02:03:46;;;;;;;17.10;5.50;;;;;;;0.48;79.54;98355.56;103022;1322;98031;-73
2021/12/20 02:08:48;;;;;;;16.60;5.30;;;;;;;0.50;79.57;98354.98;103037;1316;98629;-73
2021/12/20 02:11:19;;;;;;;17.50;5.80;;;;;;;0.50;79.56;98356.55;103009;1316;107196;-74
2021/12/20 02:13:48;;;;;;;15.20;5.70;;;;;;;0.50;79.59;98357.77;102870;1319;96189;-73
2021/12/20 02:16:20;;;;;;;20.30;6.50;;;;;;;0.49;79.68;98357.30;103047;1316;96490;-73
2021/12/20 02:18:48;;;;;;;17.20;5.50;;;;;;;0.48;79.63;98356.98;103068;1316;111363;-74
2021/12/20 02:21:18;;;;;;;22.70;7.70;;;;;;;0.47;79.60;98356.83;103114;1321;97886;-73
2021/12/20 02:23:48;;;;;;;14.90;5.60;;;;;;;0.48;79.56;98356.79;103006;1316;107950;-73
2021/12/20 02:26:19;;;;;;;18.60;5.60;;;;;;;0.49;79.60;98354.86;102857;1322;98021;-73
2021/12/20 02:28:50;;;;;;;16.40;5.30;;;;;;;0.50;79.62;98359.02;103063;1315;95938;-73
2021/12/20 02:36:59;;;;;;;16.70;4.90;;;;;;;0.48;79.67;98352.96;103056;1318;107922;-73
2021/12/20 02:39:35;;;;;;;12.70;4.00;;;;;;;0.47;79.61;98349.71;102927;1319;97936;-74
2021/12/20 02:42:03;;;;;;;12.20;4.70;;;;;;;0.46;79.47;98358.11;103081;1316;95870;-71
2021/12/20 02:44:32;;;;;;;16.00;4.00;;;;;;;0.45;79.58;98353.64;103092;1322;112086;-72
2021/12/20 02:47:08;;;;;;;15.30;4.00;;;;;;;0.43;79.54;98356.14;103154;1317;98304;-72
2021/12/20 02:49:36;;;;;;;16.90;4.30;;;;;;;0.40;79.46;98357.13;102042;1316;1458715;-72
2021/12/20 02:52:09;;;;;;;15.80;4.60;;;;;;;0.39;79.47;98354.56;103095;1316;97070;-71
2021/12/20 02:54:37;;;;;;;16.00;4.90;;;;;;;0.38;79.43;98350.41;103106;1316;97889;-71
2021/12/20 02:57:05;;;;;;;14.30;4.10;;;;;;;0.37;79.45;98355.86;103000;1319;111551;-70
2021/12/20 02:59:33;;;;;;;14.40;4.30;;;;;;;0.36;79.48;98358.38;103071;1316;97814;-72
2021/12/20 03:02:08;;;;;;;12.70;4.20;;;;;;;0.35;79.44;98357.02;103021;1319;107856;-72
2021/12/20 03:04:40;;;;;;;12.50;4.00;;;;;;;0.34;79.40;98354.23;102913;1316;97959;-73
2021/12/20 03:07:20;;;;;;;12.50;3.80;;;;;;;0.36;79.53;98358.02;102868;1319;96441;-72
2021/12/20 03:10:01;;;;;;;12.40;3.90;;;;;;;0.35;79.43;98349.70;102976;1319;113181;-72
2021/12/20 03:12:32;;;;;;;12.00;4.30;;;;;;;0.37;79.42;98353.43;102888;1318;97996;-72
2021/12/20 03:15:17;;;;;;;11.10;3.80;;;;;;;0.35;79.38;98352.14;102931;1316;107798;-73
2021/12/20 03:17:52;;;;;;;15.10;3.90;;;;;;;0.33;79.48;98350.13;103024;1316;97070;-72
2021/12/20 03:20:26;;;;;;;11.70;3.50;;;;;;;0.33;79.34;98346.64;103098;1316;97886;-72
2021/12/20 03:22:53;;;;;;;13.40;3.70;;;;;;;0.34;79.37;98343.80;103018;1315;111506;-72
2021/12/20 03:25:21;;;;;;;14.70;4.40;;;;;;;0.33;79.39;98339.65;103000;1318;97858;-72
2021/12/20 03:27:49;;;;;;;13.20;3.60;;;;;;;0.35;79.45;98347.60;102963;1316;108370;-72
2021/12/20 03:30:17;;;;;;;14.00;4.10;;;;;;;0.35;79.48;98351.08;102985;1314;97874;-73
2021/12/20 03:32:45;;;;;;;14.00;3.90;;;;;;;0.35;79.37;98344.98;102987;1316;97858;-72
2021/12/20 03:35:13;;;;;;;13.10;3.30;;;;;;;0.36;79.40;98346.16;103035;1316;111510;-73
2021/12/20 03:37:45;;;;;;;15.00;3.70;;;;;;;0.37;79.33;98349.78;103112;1315;98309;-72
2021/12/20 03:40:13;;;;;;;13.00;3.80;;;;;;;0.37;79.38;98353.42;102933;1318;106847;-72
2021/12/20 03:42:43;;;;;;;13.60;3.90;;;;;;;0.37;79.24;98350.83;103042;1315;95872;-72
2021/12/20 03:45:16;;;;;;;12.60;3.90;;;;;;;0.36;79.26;98350.14;103008;1319;97869;-72
2021/12/20 03:47:46;;;;;;;10.10;3.20;;;;;;;0.37;79.37;98353.09;102988;1316;111736;-72
2021/12/20 03:50:17;;;;;;;10.20;3.80;;;;;;;0.38;79.29;98355.66;102793;1319;97896;-72
2021/12/20 03:52:45;;;;;;;11.20;3.90;;;;;;;0.40;79.29;98357.84;102966;1317;107908;-71
2021/12/20 03:55:18;;;;;;;8.40;3.50;;;;;;;0.41;79.29;98356.02;102887;1318;98446;-71
2021/12/20 03:57:46;;;;;;;11.20;3.40;;;;;;;0.44;79.25;98358.36;103012;1315;97861;-72
2021/12/20 04:00:17;;;;;;;13.30;3.40;;;;;;;0.46;79.31;98361.61;103093;1321;111644;-72
2021/12/20 04:02:47;;;;;;;11.30;3.40;;;;;;;0.46;79.24;98355.67;103088;1316;97911;-72
2021/12/20 04:05:18;;;;;;;10.50;2.90;;;;;;;0.46;79.18;98343.98;102859;1317;107858;-73
2021/12/20 04:07:46;;;;;;;11.90;3.80;;;;;;;0.47;79.18;98342.91;103020;1316;98120;-72
2021/12/20 04:10:14;;;;;;;11.00;4.60;;;;;;;0.47;79.20;98344.27;103044;1315;95200;-71
2021/12/20 04:12:42;;;;;;;13.00;3.50;;;;;;;0.47;79.23;98347.27;102991;1322;111508;-72
2021/12/20 04:15:09;;;;;;;10.90;3.40;;;;;;;0.46;79.12;98352.69;102902;1318;97894;-73
2021/12/20 04:17:37;;;;;;;13.20;4.80;;;;;;;0.45;79.15;98348.71;103068;1317;106509;-73
2021/12/20 04:20:11;;;;;;;18.00;4.10;;;;;;;0.46;79.18;98343.64;102892;1312;97980;-72
2021/12/20 04:22:45;;;;;;;10.80;3.60;;;;;;;0.46;79.14;98346.95;103038;1316;95260;-73
2021/12/20 04:25:13;;;;;;;12.70;3.90;;;;;;;0.45;79.18;98351.15;103020;1316;109947;-74
2021/12/20 04:27:45;;;;;;;16.20;4.40;;;;;;;0.44;79.15;98354.67;103035;1316;97885;-74
2021/12/20 04:30:13;;;;;;;14.70;4.20;;;;;;;0.43;79.02;98354.39;102976;1321;107840;-74
2021/12/20 04:32:47;;;;;;;17.00;4.70;;;;;;;0.41;79.22;98356.73;103103;1316;98039;-72
2021/12/20 04:35:18;;;;;;;14.30;4.10;;;;;;;0.40;79.05;98350.33;103019;1316;96347;-73
2021/12/20 04:37:50;;;;;;;11.40;4.10;;;;;;;0.40;79.13;98349.48;103073;1316;111234;-72
2021/12/20 04:40:22;;;;;;;11.90;4.30;;;;;;;0.39;79.13;98347.92;102971;1317;96421;-73
2021/12/20 04:42:58;;;;;;;14.90;5.30;;;;;;;0.39;78.99;98357.18;102911;1317;108889;-72
2021/12/20 04:45:33;;;;;;;14.60;4.50;;;;;;;0.39;79.07;98352.14;102884;1322;98025;-72
2021/12/20 04:48:02;;;;;;;12.00;4.90;;;;;;;0.38;79.00;98350.27;103070;1322;97856;-74
2021/12/20 04:50:34;;;;;;;13.30;4.30;;;;;;;0.36;78.89;98350.33;102875;1318;111724;-73
2021/12/20 04:53:06;;;;;;;15.20;5.00;;;;;;;0.35;78.89;98352.63;103044;1316;97994;-72
2021/12/20 04:55:39;;;;;;;12.20;4.20;;;;;;;0.36;78.86;98360.98;103063;1315;107728;-72
2021/12/20 04:58:09;;;;;;;15.80;4.80;;;;;;;0.34;78.84;98358.95;102882;1318;97899;-72
2021/12/20 05:00:44;;;;;;;17.30;4.90;;;;;;;0.35;78.94;98359.27;102946;1318;97962;-72
2021/12/20 05:03:12;;;;;;;14.40;4.10;;;;;;;0.34;78.87;98368.39;102908;1316;113579;-72
2021/12/20 05:05:42;;;;;;;12.70;4.00;;;;;;;0.34;78.87;98369.94;103081;1318;98005;-71
2021/12/20 05:08:13;;;;;;;14.10;5.00;;;;;;;0.35;78.89;98375.14;103042;1317;107827;-71
2021/12/20 05:10:43;;;;;;;12.70;4.20;;;;;;;0.35;78.89;98372.71;102996;1317;98020;-71
2021/12/20 05:13:15;;;;;;;15.70;4.50;;;;;;;0.35;78.87;98367.30;103092;1318;98490;-71
2021/12/20 05:15:46;;;;;;;11.80;3.90;;;;;;;0.34;78.83;98363.70;103033;1315;111509;-72
2021/12/20 05:18:14;;;;;;;12.50;4.60;;;;;;;0.34;78.80;98368.20;103106;1319;98085;-73
2021/12/20 05:20:41;;;;;;;14.50;4.80;;;;;;;0.35;78.77;98366.95;103032;1316;107860;-72
2021/12/20 05:23:09;;;;;;;14.40;4.50;;;;;;;0.35;78.82;98360.17;103060;1316;98658;-72
2021/12/20 05:25:38;;;;;;;14.00;4.40;;;;;;;0.34;78.73;98369.79;103016;1316;97924;-72
2021/12/20 05:28:08;;;;;;;17.10;5.30;;;;;;;0.33;78.77;98370.17;102996;1316;111486;-72
2021/12/20 05:30:37;;;;;;;13.60;4.40;;;;;;;0.33;78.78;98367.21;102894;1317;95248;-70
2021/12/20 05:33:06;;;;;;;13.40;4.70;;;;;;;0.32;78.50;98369.36;102988;1316;107831;-73
2021/12/20 05:35:33;;;;;;;13.50;4.60;;;;;;;0.29;78.48;98369.11;102950;1320;98681;-71
2021/12/20 05:38:02;;;;;;;15.00;4.50;;;;;;;0.26;78.60;98369.91;103063;1316;97877;-70
2021/12/20 05:40:30;;;;;;;15.40;5.00;;;;;;;0.26;78.59;98369.59;103003;1316;109854;-71
2021/12/20 05:42:59;;;;;;;13.50;4.80;;;;;;;0.26;78.58;98370.11;102947;1322;96118;-73
2021/12/20 05:45:27;;;;;;;16.10;4.80;;;;;;;0.26;78.53;98369.05;102960;1319;107828;-74
2021/12/20 05:47:54;;;;;;;13.30;4.10;;;;;;;0.26;78.51;98366.98;103113;1316;97899;-73
2021/12/20 05:50:24;;;;;;;12.80;4.60;;;;;;;0.26;78.61;98364.85;102960;1318;97867;-72
2021/12/20 05:52:52;;;;;;;11.50;3.90;;;;;;;0.24;78.52;98361.11;103062;1320;111437;-73
2021/12/20 05:55:20;;;;;;;14.20;4.70;;;;;;;0.23;78.44;98356.64;103080;1319;97910;-72
2021/12/20 05:57:48;;;;;;;17.00;4.50;;;;;;;0.21;78.55;98359.31;103086;1316;107751;-73
2021/12/20 06:00:19;;;;;;;18.00;5.90;;;;;;;0.21;78.54;98357.77;103105;1316;98359;-73
2021/12/20 06:02:52;;;;;;;13.10;4.10;;;;;;;0.22;78.57;98363.27;103132;1320;98008;-71
2021/12/20 06:05:21;;;;;;;15.80;4.80;;;;;;;0.23;78.49;98368.32;103056;1316;111806;-71
2021/12/20 06:07:48;;;;;;;15.10;4.70;;;;;;;0.23;78.53;98367.95;102897;1319;98005;-70
2021/12/20 06:10:18;;;;;;;15.10;4.80;;;;;;;0.24;78.47;98371.22;103010;1319;108324;-73
2021/12/20 06:12:48;;;;;;;14.90;4.90;;;;;;;0.26;78.51;98373.08;102993;1318;97904;-73
2021/12/20 06:15:17;;;;;;;12.40;4.90;;;;;;;0.26;78.54;98380.74;102953;1319;97883;-71
2021/12/20 06:17:45;;;;;;;15.00;5.10;;;;;;;0.26;78.38;98381.82;102994;1316;111353;-73
2021/12/20 06:20:15;;;;;;;14.20;5.70;;;;;;;0.24;78.32;98379.41;102954;1316;98019;-71
2021/12/20 06:22:43;;;;;;;13.50;5.40;;;;;;;0.23;78.19;98386.27;102997;1315;107761;-72
2021/12/20 06:25:12;;;;;;;16.40;5.00;;;;;;;0.22;78.38;98392.95;102733;1316;97815;-72
2021/12/20 06:27:40;;;;;;;15.80;5.30;;;;;;;0.22;78.47;98395.56;102877;1318;98093;-72
2021/12/20 06:30:10;;;;;;;11.60;4.30;;;;;;;0.23;78.28;98393.44;102838;1319;111495;-73
2021/12/20 06:32:39;;;;;;;13.10;4.80;;;;;;;0.22;78.31;98393.81;103846;1317;96114;-74
2021/12/20 06:35:27;;;;;;;14.80;4.80;;;;;;;0.20;78.45;98399.67;102793;1318;107899;-71
2021/12/20 06:38:06;;;;;;;15.60;5.20;;;;;;;0.22;78.38;98404.30;102800;1316;97968;-72
2021/12/20 06:40:35;;;;;;;10.70;4.70;;;;;;;0.24;78.35;98413.43;102751;1319;95346;-71
2021/12/20 06:43:04;;;;;;;17.20;4.80;;;;;;;0.22;78.33;98419.10;102862;1317;111513;-71
2021/12/20 06:45:33;;;;;;;12.70;5.10;;;;;;;0.19;78.41;98416.78;102861;1316;98431;-74
2021/12/20 06:48:01;;;;;;;20.60;7.10;;;;;;;0.18;78.28;98421.02;102639;1318;105497;-73
2021/12/20 06:50:29;;;;;;;13.60;4.70;;;;;;;0.17;78.38;98425.06;102670;1321;97933;-75
2021/12/20 06:52:58;;;;;;;18.20;6.00;;;;;;;0.17;78.33;98428.39;102843;1318;97904;-76
2021/12/20 06:55:26;;;;;;;17.60;5.50;;;;;;;0.17;78.31;98426.48;102920;1317;111536;-74
2021/12/20 06:57:54;;;;;;;15.00;5.10;;;;;;;0.17;78.32;98435.02;102914;1316;98018;-72
2021/12/20 07:00:23;;;;;;;15.60;5.50;;;;;;;0.17;78.42;98431.70;102939;1316;108050;-74
2021/12/20 07:02:51;;;;;;;16.00;5.70;;;;;;;0.17;78.40;98439.52;102822;1318;98724;-72
2021/12/20 07:05:23;;;;;;;16.20;5.00;;;;;;;0.18;78.35;98434.62;102921;1322;95492;-75
2021/12/20 07:07:52;;;;;;;17.20;5.20;;;;;;;0.19;78.33;98433.55;102896;1318;112051;-73
2021/12/20 07:10:21;;;;;;;19.90;6.00;;;;;;;0.20;78.43;98435.41;102787;1318;96665;-74
2021/12/20 07:12:51;;;;;;;13.40;5.70;;;;;;;0.22;78.39;98438.45;102854;1319;108411;-74
2021/12/20 07:15:19;;;;;;;15.30;5.90;;;;;;;0.24;78.39;98432.80;102898;1319;98038;-75
2021/12/20 07:17:48;;;;;;;17.30;5.30;;;;;;;0.25;78.39;98432.21;102990;1316;97999;-74
2021/12/20 07:20:16;;;;;;;15.70;4.80;;;;;;;0.28;78.39;98433.69;102909;1316;112173;-75
2021/12/20 07:22:45;;;;;;;15.00;5.40;;;;;;;0.28;78.46;98428.95;102967;1317;97882;-75
2021/12/20 07:25:14;;;;;;;18.60;5.00;;;;;;;0.30;78.37;98433.41;103021;1320;107881;-74
2021/12/20 07:27:51;;;;;;;15.90;5.30;;;;;;;0.32;78.25;98428.30;102963;1318;97944;-75
2021/12/20 07:30:19;;;;;;;9.90;4.50;;;;;;;0.32;78.40;98424.48;103033;1316;97608;-75
2021/12/20 07:32:48;;;;;;;15.10;5.00;;;;;;;0.33;78.29;98432.78;103048;1316;111516;-75
2021/12/20 07:35:19;;;;;;;15.80;4.90;;;;;;;0.33;78.32;98433.66;103067;1316;97920;-74
2021/12/20 07:37:48;;;;;;;19.10;6.50;;;;;;;0.34;78.48;98434.84;102933;1316;107796;-75
2021/12/20 07:40:16;;;;;;;13.30;5.10;;;;;;;0.37;78.43;98432.45;102829;1317;98419;-75
2021/12/20 07:42:45;;;;;;;16.10;6.00;;;;;;;0.40;78.48;98437.04;102921;1316;98070;-74
2021/12/20 07:45:13;;;;;;;19.40;6.50;;;;;;;0.41;78.37;98436.98;102921;1317;111559;-73
2021/12/20 07:47:49;;;;;;;;;;;;;;;0.38;78.27;98440.43;102950;1318;98025;-76
2021/12/20 07:50:20;;;;;;;12.90;4.60;;;;;;;0.34;78.36;98447.23;102976;1316;107931;-75
2021/12/20 07:52:49;;;;;;;19.50;6.00;;;;;;;0.34;78.40;98446.53;102838;1316;97970;-73
2021/12/20 07:55:17;;;;;;;17.80;6.40;;;;;;;0.32;78.28;98442.08;102891;1318;97893;-74
2021/12/20 07:57:45;;;;;;;15.10;5.80;;;;;;;0.31;78.41;98443.50;102930;1316;111431;-75
2021/12/20 08:00:14;;;;;;;15.40;5.90;;;;;;;0.31;78.33;98447.52;103030;1316;97904;-75
2021/12/20 08:02:44;;;;;;;16.50;6.20;;;;;;;0.31;78.30;98452.23;102871;1316;107689;-74
2021/12/20 08:05:15;;;;;;;13.50;4.80;;;;;;;0.31;78.33;98454.83;102922;1316;97874;-73
2021/12/20 08:07:45;;;;;;;16.00;6.30;;;;;;;0.32;78.35;98447.98;103008;1319;96015;-72
2021/12/20 08:10:14;;;;;;;17.80;6.30;;;;;;;0.34;78.43;98450.73;102818;1322;112129;-74
2021/12/20 08:12:45;;;;;;;18.40;6.90;;;;;;;0.35;78.35;98443.86;102947;1315;96027;-75
2021/12/20 08:15:15;;;;;;;18.40;7.90;;;;;;;0.36;78.52;98438.77;102851;1316;107912;-76
2021/12/20 08:17:42;;;;;;;18.50;6.80;;;;;;;0.37;78.19;98442.05;102902;1319;98707;-75
2021/12/20 08:20:12;;;;;;;17.50;6.70;;;;;;;0.37;78.41;98446.40;103062;1317;97909;-72
2021/12/20 08:22:47;;;;;;;16.20;6.80;;;;;;;0.38;78.41;98446.55;103094;1317;110467;-74
2021/12/20 08:25:18;;;;;;;14.50;6.50;;;;;;;0.39;78.53;98448.06;103026;1320;97977;-74
2021/12/20 08:27:48;;;;;;;17.30;6.40;;;;;;;0.39;78.41;98449.99;102975;1316;108074;-73
2021/12/20 08:30:17;;;;;;;14.00;5.50;;;;;;;0.40;78.41;98456.75;103004;1316;96087;-72
2021/12/20 08:32:45;;;;;;;16.10;6.50;;;;;;;0.41;78.45;98463.14;103052;1315;98695;-72
2021/12/20 08:35:14;;;;;;;18.30;7.00;;;;;;;0.40;78.38;98462.99;102934;1316;111992;-74
2021/12/20 08:37:44;;;;;;;16.20;6.30;;;;;;;0.39;78.38;98466.19;102962;1316;98016;-75
2021/12/20 08:40:15;;;;;;;19.30;7.40;;;;;;;0.39;78.28;98458.36;103021;1317;107922;-73
2021/12/20 08:42:45;;;;;;;16.90;7.30;;;;;;;0.39;78.36;98461.30;103021;1316;97905;-74
2021/12/20 08:45:16;;;;;;;17.00;7.00;;;;;;;0.38;78.37;98458.40;102926;1316;98747;-74
2021/12/20 08:47:50;;;;;;;17.50;6.90;;;;;;;0.38;78.32;98457.71;102918;1318;111553;-75
2021/12/20 08:50:21;;;;;;;19.10;6.20;;;;;;;0.36;78.33;98461.27;102799;1318;98013;-74
2021/12/20 08:52:51;;;;;;;17.40;6.30;;;;;;;0.37;78.48;98464.38;103092;1316;107972;-76
2021/12/20 08:55:20;;;;;;;13.40;6.60;;;;;;;0.37;78.55;98470.65;103018;1316;97901;-77
2021/12/20 08:57:49;;;;;;;18.90;6.60;;;;;;;0.37;78.40;98472.90;102853;1316;97973;-74
2021/12/20 09:00:26;;;;;;;14.20;6.00;;;;;;;0.38;78.40;98475.50;103029;1316;110357;-74
2021/12/20 09:02:57;;;;;;;15.70;5.80;;;;;;;0.39;78.37;98474.55;102969;1316;96514;-74
2021/12/20 09:05:29;;;;;;;16.70;5.90;;;;;;;0.40;78.40;98472.45;102921;1317;107685;-73
2021/12/20 09:08:01;;;;;;;14.40;6.00;;;;;;;0.41;78.46;98480.05;102880;1318;98032;-73
2021/12/20 09:10:32;;;;;;;17.60;6.50;;;;;;;0.44;78.54;98479.41;102904;1318;98619;-73
2021/12/20 09:13:02;;;;;;;15.40;6.70;;;;;;;0.46;78.49;98486.16;103184;1316;111080;-72
2021/12/20 09:15:33;;;;;;;15.80;6.30;;;;;;;0.47;78.60;98493.27;103162;1321;96141;-74
2021/12/20 09:18:05;;;;;;;15.30;6.60;;;;;;;0.49;78.51;98494.08;103101;1316;107946;-72
2021/12/20 09:20:36;;;;;;;17.80;5.50;;;;;;;0.48;78.41;98497.40;102975;1319;97915;-74
2021/12/20 09:23:08;;;;;;;14.10;6.20;;;;;;;0.46;78.43;98494.52;103067;1316;97529;-77
2021/12/20 09:25:41;;;;;;;14.00;5.50;;;;;;;0.46;78.39;98493.83;103074;1316;111584;-73
2021/12/20 09:28:12;;;;;;;12.60;4.90;;;;;;;0.45;78.49;98495.25;102965;1315;98544;-74
2021/12/20 09:30:45;;;;;;;18.80;6.40;;;;;;;0.46;78.39;98497.15;103008;1318;108344;-74
2021/12/20 09:33:15;;;;;;;12.70;5.40;;;;;;;0.48;78.50;98501.96;103060;1317;96341;-75
2021/12/20 09:35:44;;;;;;;14.40;5.60;;;;;;;0.49;78.42;98499.30;102980;1316;97934;-75
2021/12/20 09:38:17;;;;;;;15.40;5.90;;;;;;;0.47;78.53;98499.20;103018;1317;112304;-74
2021/12/20 09:43:49;;;;;;;19.80;6.90;;;;;;;0.52;78.68;98495.01;102917;1322;108010;-74
2021/12/20 09:46:24;;;;;;;14.80;6.10;;;;;;;0.52;78.41;98494.81;102989;1317;98015;-77
2021/12/20 09:48:53;;;;;;;16.60;7.00;;;;;;;0.52;78.37;98497.61;103161;1316;97982;-74
2021/12/20 09:51:22;;;;;;;17.20;6.70;;;;;;;0.51;78.60;98496.77;103016;1318;112147;-75
2021/12/20 09:53:50;;;;;;;18.40;6.80;;;;;;;0.50;78.62;98498.05;103090;1316;98004;-70
2021/12/20 09:56:22;;;;;;;19.80;7.10;;;;;;;0.51;78.70;98497.48;103139;1317;107870;-75
2021/12/20 09:58:54;;;;;;;17.70;6.80;;;;;;;0.51;78.66;98501.84;103079;1316;97915;-72
2021/12/20 10:01:27;;;;;;;19.50;7.10;;;;;;;0.48;78.49;98502.12;103033;1316;96413;-72
2021/12/20 10:03:56;;;;;;;16.80;6.40;;;;;;;0.48;78.68;98508.56;102994;1316;111399;-75
2021/12/20 10:06:25;;;;;;;15.30;6.30;;;;;;;0.49;78.75;98505.92;103176;1319;97754;-73
2021/12/20 10:08:55;;;;;;;19.40;7.50;;;;;;;0.50;78.59;98509.56;103046;1320;106850;-72
2021/12/20 10:11:29;;;;;;;18.20;7.50;;;;;;;0.47;78.43;98508.98;102962;1317;97907;-73
2021/12/20 10:14:16;;;;;;;25.00;8.50;;;;;;;0.47;78.66;98513.00;102931;1322;95905;-73
2021/12/20 10:16:46;;;;;;;17.10;7.10;;;;;;;0.47;78.67;98504.10;102981;1322;111502;-71
2021/12/20 10:19:46;;;;;;;16.30;6.40;;;;;;;0.46;78.56;98507.78;102930;1317;95388;-75
2021/12/20 10:22:31;;;;;;;18.10;7.00;;;;;;;0.47;78.59;98511.41;102626;1324;105494;-74
2021/12/20 10:24:59;;;;;;;16.40;6.10;;;;;;;0.49;78.71;98515.86;102989;1316;98008;-74
2021/12/20 10:27:37;;;;;;;16.60;6.90;;;;;;;0.52;78.73;98511.92;102867;1321;95285;-73
2021/12/20 10:30:29;;;;;;;18.40;7.30;;;;;;;0.54;78.79;98514.27;102900;1316;111670;-73
2021/12/20 10:32:57;;;;;;;19.30;6.40;;;;;;;0.58;78.72;98518.12;102788;1316;96070;-76
2021/12/20 10:35:25;;;;;;;17.80;6.10;;;;;;;0.60;78.75;98519.25;102444;1317;107826;-73
2021/12/20 10:37:59;;;;;;;24.70;6.30;;;;;;;0.63;78.86;98523.70;102604;1316;97392;-74
2021/12/20 10:40:28;;;;;;;15.50;6.10;;;;;;;0.65;78.77;98520.79;103055;1322;98044;-73
2021/12/20 10:42:57;;;;;;;19.20;7.00;;;;;;;0.68;78.67;98518.42;102990;1316;111595;-73
2021/12/20 10:45:26;;;;;;;16.30;6.70;;;;;;;0.71;78.79;98520.38;103031;1321;95200;-74
2021/12/20 10:47:54;;;;;;;19.50;6.50;;;;;;;0.75;78.99;98517.96;102798;1317;106881;-77
2021/12/20 10:50:27;;;;;;;15.20;6.00;;;;;;;0.79;78.99;98514.83;102429;1317;434587;-74
2021/12/20 10:53:11;;;;;;;21.90;7.10;;;;;;;0.81;78.82;98510.91;102715;1317;95993;-72
2021/12/20 10:55:42;;;;;;;19.00;6.80;;;;;;;0.84;78.83;98511.64;102743;1316;111602;-71
2021/12/20 10:58:19;;;;;;;17.40;6.40;;;;;;;0.88;78.88;98514.79;102628;1317;96567;-71
2021/12/20 11:01:41;;;;;;;18.00;6.00;;;;;;;0.92;79.02;98517.42;102588;1317;107941;-73
2021/12/20 11:04:23;;;;;;;14.20;5.80;;;;;;;0.95;79.00;98520.10;102734;1317;97991;-75
2021/12/20 11:09:34;;;;;;;12.70;5.60;;;;;;;1.00;78.88;98514.14;102935;1316;111490;-73
2021/12/20 11:12:06;;;;;;;12.30;4.90;;;;;;;0.99;78.94;98510.48;102874;1318;98001;-73
2021/12/20 11:14:41;;;;;;;13.60;5.00;;;;;;;0.98;79.03;98513.69;102962;1316;107944;-72
2021/12/20 11:17:12;;;;;;;13.10;5.20;;;;;;;0.96;78.83;98511.84;102658;1319;97975;-72
2021/12/20 11:19:45;;;;;;;15.90;5.80;;;;;;;0.96;78.71;98512.21;103054;1316;96605;-72
2021/12/20 11:22:17;;;;;;;16.60;5.50;;;;;;;0.97;78.99;98518.10;102810;1318;111648;-72
2021/12/20 11:24:51;;;;;;;13.90;5.70;;;;;;;0.97;78.83;98521.77;102873;1317;98001;-73
2021/12/20 11:27:33;;;;;;;18.60;6.50;;;;;;;0.96;78.95;98519.70;102948;1316;107926;-70
2021/12/20 11:30:17;;;;;;;18.10;6.50;;;;;;;0.94;78.73;98513.88;102889;1316;98039;-72
2021/12/20 11:32:47;;;;;;;17.80;6.20;;;;;;;0.93;78.90;98519.14;102676;1317;97949;-71
2021/12/20 11:35:20;;;;;;;14.10;6.30;;;;;;;0.92;78.81;98518.98;102718;1316;111434;-72
2021/12/20 11:37:50;;;;;;;16.30;6.00;;;;;;;0.94;78.84;98518.41;102725;1320;96709;-73
2021/12/20 11:40:20;;;;;;;13.30;5.70;;;;;;;0.94;78.91;98516.46;104212;1315;107989;-73
2021/12/20 11:42:50;;;;;;;13.40;4.90;;;;;;;0.95;79.07;98520.46;102702;1317;97911;-73
2021/12/20 11:45:20;;;;;;;13.80;5.00;;;;;;;0.95;78.75;98525.16;102711;1322;97930;-74
2021/12/20 11:48:13;;;;;;;12.60;5.20;;;;;;;0.95;78.85;98526.20;103187;1316;111615;-73
2021/12/20 11:50:44;;;;;;;12.00;4.60;;;;;;;0.96;78.85;98523.56;102937;1313;97995;-71
2021/12/20 11:53:17;;;;;;;13.00;5.40;;;;;;;0.95;78.97;98528.65;103025;1316;107523;-73
2021/12/20 11:55:54;;;;;;;11.70;4.50;;;;;;;0.98;78.93;98532.71;102862;1315;98150;-71
2021/12/20 11:58:25;;;;;;;12.80;5.00;;;;;;;0.99;78.88;98530.39;103049;1319;97875;-69
2021/12/20 12:00:58;;;;;;;15.10;5.90;;;;;;;1.02;78.96;98529.03;102933;1317;111639;-69